Time;durP1;ratioP1;P1;durP2;ratioP2;P2;SDS_P1;SDS_P2;PMS_P1;PMS_P2;Temp;Humidity;BMP_temperature;BMP_pressure;BME280_temperature;BME280_humidity;BME280_pressure;Samples;Min_cycle;Max_cycle;Signal;HPM_P1;HPM_P2
2021/10/17 00:02:22;;;;;;;;;;;6.20;99.90;;;4.96;100.00;95950.34;10560305;28;1977;-77
2021/10/17 00:07:25;;;;;;;;;;;6.20;99.90;;;4.81;100.00;95962.28;10581721;27;1979;-77
2021/10/17 00:12:28;;;;;;;;;;;6.20;99.90;;;4.71;100.00;95959.41;10588565;27;1886;-77
2021/10/17 00:17:31;;;;;;;;;;;6.00;99.90;;;4.62;100.00;95963.47;10583395;28;1910;-78
2021/10/17 00:22:33;;;;;;;;;;;6.00;99.90;;;4.55;100.00;95965.41;10592690;28;1886;-77
2021/10/17 00:27:36;;;;;;;;;;;5.90;99.90;;;4.58;100.00;95955.13;10616134;27;1814;-77
2021/10/17 00:32:39;;;;;;;;;;;5.80;99.90;;;4.62;100.00;95960.78;10616562;28;1772;-76
2021/10/17 00:37:42;;;;;;;;;;;5.80;99.90;;;4.73;100.00;95956.53;10615997;28;1776;-77
2021/10/17 00:42:45;;;;;;;;;;;5.90;99.90;;;4.68;100.00;95967.84;10608014;28;2176;-77
2021/10/17 00:47:48;;;;;;;;;;;6.00;99.90;;;4.70;100.00;95976.41;10596169;28;1839;-76
2021/10/17 00:52:51;;;;;;;;;;;5.90;99.90;;;4.65;100.00;95980.84;10575949;27;1945;-76
2021/10/17 00:57:54;;;;;;;;;;;5.90;99.90;;;4.69;100.00;95981.97;10578165;28;2017;-77
2021/10/17 01:02:57;;;;;;;;;;;5.90;99.90;;;4.75;100.00;95981.88;10575859;28;1900;-77
2021/10/17 01:08:00;;;;;;;;;;;5.90;99.90;;;4.72;100.00;95982.34;10576356;28;1955;-78
2021/10/17 01:13:03;;;;;;;;;;;6.00;99.90;;;4.77;100.00;95979.81;10575079;28;1819;-76
2021/10/17 01:18:05;;;;;;;;;;;6.00;99.90;;;4.92;100.00;95974.00;10569920;28;1823;-76
2021/10/17 01:23:08;;;;;;;;;;;6.10;99.90;;;4.96;100.00;95966.31;10581188;28;1985;-77
2021/10/17 01:28:11;;;;;;;;;;;6.10;99.90;;;4.91;100.00;95964.38;10582182;28;1917;-78
2021/10/17 01:33:34;;;;;;;;;;;6.20;99.90;;;4.91;100.00;95947.59;10581527;28;1855;-77
2021/10/17 01:38:37;;;;;;;;;;;6.20;99.90;;;4.88;100.00;95954.19;10580397;28;1828;-77
2021/10/17 01:43:40;;;;;;;;;;;6.20;99.90;;;4.81;100.00;95948.16;10577233;27;1905;-77
2021/10/17 01:48:43;;;;;;;;;;;6.10;99.90;;;4.67;100.00;95954.78;10578238;28;1947;-77
2021/10/17 01:53:46;;;;;;;;;;;6.00;99.90;;;4.61;100.00;95948.53;10583996;28;1792;-77
2021/10/17 01:58:49;;;;;;;;;;;5.90;99.90;;;4.52;100.00;95936.63;10581223;28;1843;-77
2021/10/17 02:03:51;;;;;;;;;;;5.80;99.90;;;4.43;100.00;95935.31;10578395;28;2008;-77
2021/10/17 02:08:54;;;;;;;;;;;5.70;99.90;;;4.36;100.00;95930.13;10593853;27;1854;-76
2021/10/17 02:13:57;;;;;;;;;;;5.70;99.90;;;4.34;100.00;95943.66;10565035;28;1959;-77
2021/10/17 02:19:00;;;;;;;;;;;5.60;99.90;;;4.25;100.00;95933.56;10543013;28;2095;-76
2021/10/17 02:24:03;;;;;;;;;;;5.50;99.90;;;4.22;100.00;95934.84;10554868;28;2123;-77
2021/10/17 02:29:06;;;;;;;;;;;5.50;99.90;;;4.21;100.00;95943.06;10573494;27;2102;-77
2021/10/17 02:34:09;;;;;;;;;;;5.50;99.90;;;4.15;100.00;95939.47;10565747;28;1971;-78
2021/10/17 02:39:12;;;;;;;;;;;5.40;99.90;;;4.13;100.00;95941.53;10582578;28;2059;-76
2021/10/17 02:44:15;;;;;;;;;;;5.40;99.90;;;4.13;100.00;95946.03;10584011;28;2024;-77
2021/10/17 02:49:18;;;;;;;;;;;5.40;99.90;;;4.17;100.00;95941.88;10601815;28;2078;-76
2021/10/17 02:54:21;;;;;;;;;;;5.40;99.90;;;4.21;100.00;95949.19;10597812;28;1802;-77
2021/10/17 02:59:24;;;;;;;;;;;5.50;99.90;;;4.27;100.00;95948.28;10611942;28;1928;-77
2021/10/17 03:04:27;;;;;;;;;;;5.50;99.90;;;4.25;100.00;95949.53;10615249;28;2008;-75
2021/10/17 03:09:30;;;;;;;;;;;5.50;99.90;;;4.20;100.00;95941.41;10587089;28;2016;-77
2021/10/17 03:14:33;;;;;;;;;;;5.50;99.90;;;4.21;100.00;95951.03;10594191;28;2023;-77
2021/10/17 03:19:36;;;;;;;;;;;5.50;99.90;;;4.17;100.00;95940.03;10589106;28;2095;-77
2021/10/17 03:24:39;;;;;;;;;;;5.50;99.90;;;4.09;100.00;95945.69;10585178;28;2012;-77
2021/10/17 03:29:42;;;;;;;;;;;5.50;99.90;;;4.01;100.00;95946.03;10573916;28;1920;-78
2021/10/17 03:34:45;;;;;;;;;;;5.30;99.90;;;3.91;100.00;95943.09;10551168;28;2005;-76
2021/10/17 03:39:48;;;;;;;;;;;5.30;99.90;;;3.93;100.00;95952.47;10572069;28;2036;-76
2021/10/17 03:44:51;;;;;;;;;;;5.30;99.90;;;3.96;100.00;95951.22;10569864;28;1964;-77
2021/10/17 03:49:54;;;;;;;;;;;5.40;99.90;;;3.92;100.00;95950.03;10574914;28;2012;-76
2021/10/17 03:54:57;;;;;;;;;;;5.20;99.90;;;3.98;100.00;95949.13;10580666;27;2047;-76
2021/10/17 04:00:00;;;;;;;;;;;5.30;99.90;;;3.91;100.00;95953.75;10553736;27;1982;-76
2021/10/17 04:05:03;;;;;;;;;;;5.20;99.90;;;3.90;100.00;95946.81;10575340;28;2026;-76
2021/10/17 04:10:06;;;;;;;;;;;5.20;99.90;;;3.86;100.00;95941.13;10558039;27;2179;-76
2021/10/17 04:15:09;;;;;;;;;;;5.10;99.90;;;3.80;100.00;95942.84;10577154;28;2042;-78
2021/10/17 04:20:12;;;;;;;;;;;5.30;99.90;;;3.79;100.00;95941.22;10574085;28;2079;-76
2021/10/17 04:25:15;;;;;;;;;;;5.10;99.90;;;3.72;100.00;95937.84;10575645;28;2568;-77
2021/10/17 04:30:18;;;;;;;;;;;5.10;99.90;;;3.68;100.00;95935.84;10574537;28;2023;-77
2021/10/17 04:35:21;;;;;;;;;;;5.00;99.90;;;3.72;100.00;95937.84;10575893;28;1960;-76
2021/10/17 04:40:24;;;;;;;;;;;5.00;99.90;;;3.73;100.00;95925.38;10578033;27;2081;-77
2021/10/17 04:45:27;;;;;;;;;;;5.00;99.90;;;3.71;100.00;95932.75;10575026;27;2055;-77
2021/10/17 04:50:30;;;;;;;;;;;5.20;99.90;;;3.77;100.00;95919.38;10561499;28;2012;-77
2021/10/17 04:55:33;;;;;;;;;;;5.00;99.90;;;3.72;100.00;95923.75;10576976;28;2099;-76
2021/10/17 05:00:36;;;;;;;;;;;5.00;99.90;;;3.65;100.00;95921.19;10558293;28;2042;-77
2021/10/17 05:05:39;;;;;;;;;;;5.00;99.90;;;3.60;100.00;95910.41;10574901;28;2158;-76
2021/10/17 05:10:42;;;;;;;;;;;5.00;99.90;;;3.56;100.00;95909.22;10580391;27;2058;-77
2021/10/17 05:15:45;;;;;;;;;;;4.90;99.90;;;3.54;100.00;95916.63;10584071;28;1959;-78
2021/10/17 05:20:48;;;;;;;;;;;4.90;99.90;;;3.50;100.00;95920.78;10579565;27;1983;-78
2021/10/17 05:25:55;;;;;;;;;;;5.00;99.90;;;3.57;100.00;95926.00;10587023;28;2024;-78
2021/10/17 05:31:00;;;;;;;;;;;4.80;99.90;;;3.56;100.00;95933.16;10580088;27;2154;-77
2021/10/17 05:36:03;;;;;;;;;;;4.90;99.90;;;3.53;100.00;95931.75;10567638;28;2099;-76
2021/10/17 05:41:06;;;;;;;;;;;4.80;99.90;;;3.52;100.00;95926.69;10575115;27;1979;-78
2021/10/17 05:46:09;;;;;;;;;;;5.00;99.90;;;3.46;100.00;95931.03;10578467;27;2032;-76
2021/10/17 05:51:12;;;;;;;;;;;4.80;99.90;;;3.41;100.00;95930.91;10562170;27;2206;-76
2021/10/17 05:56:15;;;;;;;;;;;4.70;99.90;;;3.45;100.00;95931.28;10564700;28;2004;-78
2021/10/17 06:01:18;;;;;;;;;;;4.70;99.90;;;3.45;100.00;95936.59;10561971;27;1772;-77
2021/10/17 06:06:20;;;;;;;;;;;4.70;99.90;;;3.48;100.00;95938.78;10575310;28;1910;-76
2021/10/17 06:11:23;;;;;;;;;;;4.90;99.90;;;3.62;100.00;95948.19;10556074;28;1967;-76
2021/10/17 06:16:26;;;;;;;;;;;4.80;99.90;;;3.78;100.00;95944.91;10572063;28;1942;-77
2021/10/17 06:21:29;;;;;;;;;;;5.00;99.90;;;3.92;100.00;95956.16;10580952;27;1989;-76
2021/10/17 06:26:32;;;;;;;;;;;5.10;99.90;;;4.04;100.00;95965.00;10569872;27;1975;-76
2021/10/17 06:31:35;;;;;;;;;;;5.10;99.90;;;4.18;100.00;95965.59;10563377;27;1967;-77
2021/10/17 06:36:38;;;;;;;;;;;5.20;99.90;;;4.37;100.00;95960.19;10584903;27;1878;-76
2021/10/17 06:41:41;;;;;;;;;;;5.40;99.90;;;4.54;100.00;95963.81;10576429;27;1831;-76
2021/10/17 06:46:44;;;;;;;;;;;5.60;99.90;;;4.64;100.00;95969.34;10555502;27;1985;-77
2021/10/17 06:51:47;;;;;;;;;;;5.70;99.90;;;4.75;100.00;95978.41;10583171;27;1815;-77
2021/10/17 06:56:50;;;;;;;;;;;5.80;99.90;;;4.84;100.00;95982.34;10570842;27;1898;-77
2021/10/17 07:01:53;;;;;;;;;;;5.80;99.90;;;5.15;100.00;95991.78;10591029;28;1965;-77
2021/10/17 07:06:56;;;;;;;;;;;6.00;99.90;;;5.34;100.00;95990.63;10597975;28;1996;-77
2021/10/17 07:11:59;;;;;;;;;;;6.20;99.90;;;5.40;100.00;95986.19;10604591;28;1871;-77
2021/10/17 07:17:02;;;;;;;;;;;6.40;99.90;;;5.56;100.00;95988.13;10595424;28;1882;-78
2021/10/17 07:22:05;;;;;;;;;;;6.50;99.90;;;5.77;100.00;95983.19;10599373;27;1737;-78
2021/10/17 07:27:08;;;;;;;;;;;6.70;99.90;;;5.95;100.00;95991.84;10609382;27;1965;-77
2021/10/17 07:32:11;;;;;;;;;;;6.80;99.90;;;6.09;100.00;95992.34;10594777;27;1864;-78
2021/10/17 07:37:14;;;;;;;;;;;7.00;99.90;;;6.21;100.00;95982.44;10601773;27;1867;-76
2021/10/17 07:42:17;;;;;;;;;;;7.10;99.90;;;6.39;100.00;95997.41;10580033;27;1887;-77
2021/10/17 07:47:20;;;;;;;;;;;7.20;99.90;;;6.56;100.00;95985.94;10580604;27;1945;-76
2021/10/17 07:52:23;;;;;;;;;;;7.40;99.90;;;6.76;100.00;95991.59;10575242;27;1913;-75
2021/10/17 07:57:26;;;;;;;;;;;7.50;99.90;;;6.94;100.00;95993.22;10569975;27;1964;-79
2021/10/17 08:02:29;;;;;;;;;;;7.70;99.90;;;7.24;100.00;95993.63;10594698;27;1782;-78
2021/10/17 08:07:33;;;;;;;;;;;8.00;99.90;;;7.45;100.00;95994.72;10607137;28;1914;-78
2021/10/17 08:12:36;;;;;;;;;;;8.20;99.90;;;7.73;100.00;95990.22;10599914;27;1802;-77
2021/10/17 08:17:42;;;;;;;;;;;8.40;99.90;;;7.95;100.00;95998.22;10579858;28;1900;-78
2021/10/17 08:22:45;;;;;;;;;;;8.60;99.90;;;8.18;100.00;95983.75;10579401;28;1955;-77
2021/10/17 08:27:48;;;;;;;;;;;8.80;99.90;;;8.29;97.36;95994.31;10606391;27;1975;-79
2021/10/17 08:32:51;;;;;;;;;;;9.00;99.90;;;8.59;96.94;96003.72;10594351;27;1921;-78
2021/10/17 08:37:54;;;;;;;;;;;9.20;99.90;;;8.87;95.95;96002.59;10598430;28;1857;-77
2021/10/17 08:42:57;;;;;;;;;;;9.60;99.90;;;9.06;94.28;96008.38;10578640;28;1909;-78
2021/10/17 08:48:00;;;;;;;;;;;9.70;99.90;;;9.12;93.63;96010.00;10612370;27;2057;-77
2021/10/17 08:53:03;;;;;;;;;;;9.90;99.90;;;9.19;93.32;96014.09;10598490;27;1836;-77
2021/10/17 08:58:06;;;;;;;;;;;10.00;99.90;;;9.34;92.99;96020.59;10608232;27;1862;-79
2021/10/17 09:03:08;;;;;;;;;;;10.00;99.90;;;9.51;92.47;96010.50;10595890;28;1909;-79
2021/10/17 09:08:11;;;;;;;;;;;10.20;99.90;;;9.56;93.17;96017.78;10603269;27;1890;-78
2021/10/17 09:13:14;;;;;;;;;;;10.20;99.90;;;9.70;91.17;96008.19;10580356;28;1932;-80
2021/10/17 09:18:17;;;;;;;;;;;10.40;99.90;;;9.94;92.09;95998.63;10579963;28;2272;-78
2021/10/17 09:23:20;;;;;;;;;;;10.60;99.90;;;10.06;90.10;96005.63;10604166;28;1734;-78
2021/10/17 09:28:23;;;;;;;;;;;10.70;99.90;;;9.69;91.25;96002.00;10572335;28;1935;-78
2021/10/17 09:33:26;;;;;;;;;;;10.80;99.90;;;9.81;92.38;96004.47;10597098;27;2164;-79
2021/10/17 09:38:29;;;;;;;;;;;10.70;99.90;;;9.87;91.89;96003.44;10590008;28;1976;-79
2021/10/17 09:43:33;;;;;;;;;;;10.80;99.90;;;10.00;91.06;95997.56;10574507;27;1959;-80
2021/10/17 09:48:36;;;;;;;;;;;10.90;99.90;;;10.29;90.15;96005.97;10580928;28;1942;-81
2021/10/17 09:53:39;;;;;;;;;;;11.00;99.90;;;10.43;89.73;96006.28;10584211;27;1878;-80
2021/10/17 09:58:42;;;;;;;;;;;11.20;99.90;;;10.52;89.33;96009.25;10610580;28;1853;-80
2021/10/17 10:03:45;;;;;;;;;;;11.40;99.90;;;10.69;88.86;96006.31;10599484;27;1930;-78
2021/10/17 10:08:49;;;;;;;;;;;11.50;99.90;;;10.65;88.03;95997.97;10588477;27;2145;-78
2021/10/17 10:13:52;;;;;;;;;;;11.60;99.90;;;10.51;89.41;96007.63;10597863;27;1874;-79
2021/10/17 10:18:55;;;;;;;;;;;11.50;99.90;;;10.57;89.31;96005.78;10597124;27;1966;-80
2021/10/17 10:23:58;;;;;;;;;;;11.40;99.90;;;10.69;88.79;95999.06;10610115;27;1918;-79
2021/10/17 10:29:01;;;;;;;;;;;11.50;99.90;;;10.47;88.89;95999.28;10587646;27;2044;-77
2021/10/17 10:34:04;;;;;;;;;;;11.60;99.90;;;10.43;89.05;96005.47;10600402;27;2024;-79
2021/10/17 10:39:07;;;;;;;;;;;11.50;99.90;;;10.73;89.35;95992.03;10603474;28;1839;-78
2021/10/17 10:44:10;;;;;;;;;;;11.60;99.90;;;10.82;88.09;95995.03;10573127;28;1916;-79
2021/10/17 10:49:14;;;;;;;;;;;11.70;99.90;;;10.73;88.55;95988.56;10592177;28;1898;-77
2021/10/17 10:54:17;;;;;;;;;;;11.70;99.90;;;10.78;87.62;95975.91;10588773;28;1916;-78
2021/10/17 10:59:21;;;;;;;;;;;11.70;99.90;;;10.87;88.23;95984.25;10588579;28;1898;-79
2021/10/17 11:04:24;;;;;;;;;;;11.70;99.90;;;11.10;87.44;95986.38;10595496;28;1851;-79
2021/10/17 11:09:27;;;;;;;;;;;11.90;99.90;;;11.15;85.48;95982.88;10592824;28;1970;-80
2021/10/17 11:14:31;;;;;;;;;;;12.00;99.90;;;11.15;87.12;95974.81;10595913;28;1909;-81
2021/10/17 11:19:34;;;;;;;;;;;12.10;99.90;;;11.24;85.64;95970.47;10593481;28;1886;-83
2021/10/17 11:24:37;;;;;;;;;;;12.10;99.90;;;11.22;85.47;95967.25;10598072;27;2054;-81
2021/10/17 11:29:40;;;;;;;;;;;12.20;99.90;;;11.31;84.62;95951.34;10612473;28;1928;-81
2021/10/17 11:34:42;;;;;;;;;;;12.20;99.90;;;11.35;84.87;95953.22;10617875;27;1465;-80
2021/10/17 11:39:45;;;;;;;;;;;12.20;99.90;;;11.25;85.11;95953.25;10603880;28;1886;-81
2021/10/17 11:44:48;;;;;;;;;;;12.20;99.90;;;11.48;85.20;95940.28;10580038;28;1913;-82
2021/10/17 11:49:51;;;;;;;;;;;12.40;99.90;;;11.46;84.52;95937.06;10560770;28;2201;-76
2021/10/17 11:54:54;;;;;;;;;;;12.40;99.90;;;11.85;84.33;95927.22;10571984;28;1910;-76
2021/10/17 11:59:57;;;;;;;;;;;12.60;99.90;;;11.80;83.55;95927.19;10571508;28;1925;-75
2021/10/17 12:05:00;;;;;;;;;;;13.60;99.90;;;11.78;82.57;95907.03;10593550;27;1960;-85
2021/10/17 12:10:03;;;;;;;;;;;12.70;99.90;;;11.55;83.71;95911.16;10610133;27;1686;-83
2021/10/17 12:15:06;;;;;;;;;;;12.60;99.90;;;11.74;83.76;95901.38;10631363;27;1831;-83
2021/10/17 12:20:11;;;;;;;;;;;12.70;99.90;;;11.58;84.21;95897.97;10621760;27;1756;-84
2021/10/17 12:25:14;;;;;;;;;;;12.70;99.90;;;11.66;84.57;95893.09;10622123;27;1922;-80
2021/10/17 12:30:17;;;;;;;;;;;12.70;99.90;;;11.61;83.33;95892.03;10605675;27;1932;-83
2021/10/17 12:35:20;;;;;;;;;;;12.60;99.90;;;11.65;84.81;95881.50;10588332;28;2277;-84
2021/10/17 12:40:23;;;;;;;;;;;12.60;99.90;;;11.81;82.32;95885.75;10594835;27;1950;-82
2021/10/17 12:45:26;;;;;;;;;;;12.70;99.90;;;11.88;83.00;95880.84;10604921;27;1987;-80
2021/10/17 12:50:29;;;;;;;;;;;12.80;99.90;;;11.82;82.32;95881.16;10574380;27;1919;-78
2021/10/17 12:55:32;;;;;;;;;;;12.80;99.90;;;11.89;82.40;95877.06;10582679;27;1890;-78
2021/10/17 13:00:35;;;;;;;;;;;12.80;99.90;;;11.64;83.31;95879.88;10576914;27;1902;-81
2021/10/17 13:05:38;;;;;;;;;;;12.80;99.90;;;11.58;83.41;95886.41;10597296;27;1986;-83
2021/10/17 13:10:41;;;;;;;;;;;12.70;99.90;;;11.61;83.71;95885.81;10581298;28;1978;-81
2021/10/17 13:15:44;;;;;;;;;;;12.70;99.90;;;11.69;83.98;95882.53;10611576;27;1938;-80
2021/10/17 13:20:47;;;;;;;;;;;12.60;99.90;;;11.70;84.37;95886.84;10570587;27;2103;-79
2021/10/17 13:25:50;;;;;;;;;;;12.70;99.90;;;11.63;85.41;95889.03;10561274;28;1987;-80
2021/10/17 13:30:54;;;;;;;;;;;12.70;99.90;;;11.64;84.96;95890.66;10584306;28;1878;-78
2021/10/17 13:35:57;;;;;;;;;;;12.60;99.90;;;11.58;84.38;95895.28;10562132;28;1992;-78
2021/10/17 13:41:00;;;;;;;;;;;12.60;99.90;;;11.59;84.83;95898.78;10568062;27;2397;-78
2021/10/17 13:46:03;;;;;;;;;;;12.60;99.90;;;11.56;86.34;95907.38;10545816;28;2010;-78
2021/10/17 13:51:06;;;;;;;;;;;12.60;99.90;;;11.57;86.54;95906.28;10570552;27;1964;-79
2021/10/17 13:56:11;;;;;;;;;;;12.60;99.90;;;11.30;87.02;95896.72;10568302;27;1925;-78
2021/10/17 14:01:13;;;;;;;;;;;12.50;99.90;;;11.38;87.41;95898.84;10575340;28;2044;-79
2021/10/17 14:06:17;;;;;;;;;;;12.40;99.90;;;11.40;87.52;95901.28;10583265;28;1937;-80
2021/10/17 14:11:19;;;;;;;;;;;12.50;99.90;;;11.32;87.23;95899.97;10597489;28;2191;-79
2021/10/17 14:16:22;;;;;;;;;;;12.40;99.90;;;11.21;88.46;95900.28;10565669;28;2240;-80
2021/10/17 14:21:25;;;;;;;;;;;12.30;99.90;;;11.12;89.46;95894.63;10580815;27;2027;-77
2021/10/17 14:26:28;;;;;;;;;;;12.20;99.90;;;11.00;90.08;95907.56;10562556;28;2059;-78
2021/10/17 14:31:31;;;;;;;;;;;12.10;99.90;;;11.02;90.44;95905.44;10573041;27;2025;-77
2021/10/17 14:36:34;;;;;;;;;;;12.10;99.90;;;10.88;91.45;95904.38;10575487;28;1913;-78
2021/10/17 14:41:37;;;;;;;;;;;12.00;99.90;;;10.87;91.56;95903.56;10584566;28;1930;-77
2021/10/17 14:46:42;;;;;;;;;;;12.00;99.90;;;10.80;91.95;95913.78;10581072;28;1934;-76
2021/10/17 14:51:45;;;;;;;;;;;11.90;99.90;;;10.73;91.37;95910.59;10588238;28;1925;-79
2021/10/17 14:56:48;;;;;;;;;;;11.90;99.90;;;10.68;92.81;95908.69;10569328;28;1886;-78
2021/10/17 15:01:51;;;;;;;;;;;11.80;99.90;;;10.59;93.30;95907.63;10569606;28;1880;-77
2021/10/17 15:06:58;;;;;;;;;;;11.80;99.90;;;10.51;94.82;95905.50;10576918;28;1968;-77
2021/10/17 15:12:02;;;;;;;;;;;11.60;99.90;;;10.47;95.56;95904.41;10574969;28;1929;-78
2021/10/17 15:17:05;;;;;;;;;;;11.60;99.90;;;10.46;95.91;95903.63;10576719;28;1933;-79
2021/10/17 15:22:08;;;;;;;;;;;11.50;99.90;;;10.38;97.08;95911.41;10597474;28;2143;-78
2021/10/17 15:27:11;;;;;;;;;;;11.50;99.90;;;10.25;99.40;95910.06;10587966;28;1980;-78
2021/10/17 15:32:27;;;;;;;;;;;11.40;99.90;;;10.12;100.00;95919.44;10570079;28;2026;-78
2021/10/17 15:37:50;;;;;;;;;;;11.30;99.90;;;9.94;100.00;95918.06;10550550;28;1742;-77
2021/10/17 15:42:53;;;;;;;;;;;11.20;99.90;;;9.82;100.00;95919.38;10574569;28;1850;-77
2021/10/17 15:47:56;;;;;;;;;;;11.00;99.90;;;9.70;100.00;95917.72;10564037;28;1934;-78
2021/10/17 15:52:59;;;;;;;;;;;10.90;99.90;;;9.57;100.00;95931.63;10589651;27;1875;-78
2021/10/17 15:58:02;;;;;;;;;;;10.80;99.90;;;9.40;100.00;95931.84;10579482;27;1918;-76
2021/10/17 16:03:05;;;;;;;;;;;10.70;99.90;;;9.31;100.00;95935.28;10591694;28;1949;-78
2021/10/17 16:08:07;;;;;;;;;;;10.60;99.90;;;9.12;100.00;95941.09;10573620;28;1898;-77
2021/10/17 16:13:10;;;;;;;;;;;10.40;99.90;;;9.09;100.00;95943.47;10581909;28;1784;-80
2021/10/17 16:18:17;;;;;;;;;;;10.30;99.90;;;8.92;100.00;95944.47;10577467;27;1910;-77
2021/10/17 16:23:25;;;;;;;;;;;10.20;99.90;;;8.77;100.00;95946.22;10569742;27;1898;-78
2021/10/17 16:28:30;;;;;;;;;;;10.00;99.90;;;8.66;100.00;95945.38;10578957;27;1913;-76
2021/10/17 16:33:32;;;;;;;;;;;9.90;99.90;;;8.56;100.00;95951.44;10592538;27;1961;-76
2021/10/17 16:38:35;;;;;;;;;;;9.80;99.90;;;8.42;100.00;95950.25;10591953;27;1899;-78
2021/10/17 16:43:38;;;;;;;;;;;9.70;99.90;;;8.40;100.00;95952.41;10586367;28;1886;-77
2021/10/17 16:48:41;;;;;;;;;;;9.60;99.90;;;8.38;100.00;95960.66;10559289;28;1909;-77
2021/10/17 16:53:44;;;;;;;;;;;9.60;99.90;;;8.28;100.00;95965.13;10574150;27;1914;-78
2021/10/17 16:58:47;;;;;;;;;;;9.50;99.90;;;8.21;100.00;95969.88;10583642;28;1918;-78
2021/10/17 17:03:52;;;;;;;;;;;9.40;99.90;;;8.11;100.00;95967.88;10584164;28;2040;-78
2021/10/17 17:08:55;;;;;;;;;;;9.40;99.90;;;8.01;100.00;95965.91;10563417;28;1931;-77
2021/10/17 17:14:00;;;;;;;;;;;9.30;99.90;;;7.88;100.00;95970.84;10574743;28;1898;-80
2021/10/17 17:19:07;;;;;;;;;;;9.10;99.90;;;7.86;100.00;95974.59;10575067;27;1900;-78
2021/10/17 17:24:10;;;;;;;;;;;9.10;99.90;;;7.75;100.00;95974.72;10595639;27;1527;-77
2021/10/17 17:29:13;;;;;;;;;;;9.00;99.90;;;7.62;100.00;95972.44;10575390;27;1979;-77
2021/10/17 17:34:16;;;;;;;;;;;8.90;99.90;;;7.50;100.00;95978.72;10577315;27;1849;-79
2021/10/17 17:39:19;;;;;;;;;;;8.80;99.90;;;7.41;100.00;95977.53;10598026;27;1910;-79
2021/10/17 17:44:22;;;;;;;;;;;8.80;99.90;;;7.46;100.00;95990.97;10581901;27;1925;-77
2021/10/17 17:49:26;;;;;;;;;;;8.70;99.90;;;7.32;100.00;95992.41;10575075;27;1969;-79
2021/10/17 17:54:28;;;;;;;;;;;8.60;99.90;;;7.44;100.00;95987.72;10593247;27;1966;-79
2021/10/17 17:59:31;;;;;;;;;;;8.60;99.90;;;7.39;100.00;95995.72;10565355;27;1888;-78
2021/10/17 18:04:34;;;;;;;;;;;8.70;99.90;;;7.33;100.00;95999.38;10574348;27;2009;-78
2021/10/17 18:09:37;;;;;;;;;;;8.60;99.90;;;7.34;100.00;96000.97;10571792;27;1915;-78
2021/10/17 18:14:40;;;;;;;;;;;8.50;99.90;;;7.27;100.00;96006.50;10572619;27;1966;-79
2021/10/17 18:19:43;;;;;;;;;;;8.50;99.90;;;7.16;100.00;96006.63;10568683;27;1741;-77
2021/10/17 18:24:46;;;;;;;;;;;8.40;99.90;;;7.06;100.00;96009.94;10584830;27;1949;-78
2021/10/17 18:29:49;;;;;;;;;;;8.40;99.90;;;6.98;100.00;96008.50;10577809;27;1981;-78
2021/10/17 18:34:52;;;;;;;;;;;8.30;99.90;;;7.01;100.00;96005.34;10598682;27;1843;-79
2021/10/17 18:39:55;;;;;;;;;;;8.20;99.90;;;7.04;100.00;96018.22;10584793;27;1926;-81
2021/10/17 18:44:58;;;;;;;;;;;8.30;99.90;;;6.99;100.00;96020.81;10575845;28;1433;-79
2021/10/17 18:50:01;;;;;;;;;;;8.20;99.90;;;6.88;100.00;96023.59;10578641;27;1894;-78
2021/10/17 18:55:04;;;;;;;;;;;8.10;99.90;;;6.81;100.00;96037.13;10614281;27;1086;-80
2021/10/17 19:00:08;;;;;;;;;;;8.10;99.90;;;6.79;100.00;96039.19;10591312;27;1918;-80
2021/10/17 19:05:11;;;;;;;;;;;8.00;99.90;;;6.74;100.00;96033.75;10591675;28;2387;-80
2021/10/17 19:10:14;;;;;;;;;;;8.00;99.90;;;6.68;100.00;96042.75;10592780;28;2065;-79
2021/10/17 19:15:17;;;;;;;;;;;8.00;99.90;;;6.76;100.00;96047.72;10603072;27;1836;-80
2021/10/17 19:20:25;;;;;;;;;;;7.90;99.90;;;6.70;100.00;96044.16;10608650;28;1855;-79
2021/10/17 19:25:28;;;;;;;;;;;7.90;99.90;;;6.63;100.00;96043.50;10622054;27;1938;-80
2021/10/17 19:30:32;;;;;;;;;;;7.80;99.90;;;6.69;100.00;96052.41;10596438;27;1934;-79
2021/10/17 19:35:36;;;;;;;;;;;7.90;99.90;;;6.53;100.00;96061.19;10607400;27;1977;-80
2021/10/17 19:40:40;;;;;;;;;;;7.80;99.90;;;6.53;100.00;96067.34;10612084;28;1972;-79
2021/10/17 19:45:43;;;;;;;;;;;7.80;99.90;;;6.52;100.00;96072.94;10586835;28;1884;-80
2021/10/17 19:50:46;;;;;;;;;;;7.80;99.90;;;6.47;100.00;96074.47;10586704;28;1890;-78
2021/10/17 19:55:49;;;;;;;;;;;7.70;99.90;;;6.39;100.00;96072.19;10607881;27;1843;-79
2021/10/17 20:00:52;;;;;;;;;;;7.60;99.90;;;6.38;100.00;96075.91;10608667;28;1830;-78
2021/10/17 20:05:55;;;;;;;;;;;7.60;99.90;;;6.37;100.00;96074.28;10607768;27;1941;-79
2021/10/17 20:10:58;;;;;;;;;;;7.60;99.90;;;6.44;100.00;96077.63;10609761;28;1917;-79
2021/10/17 20:16:01;;;;;;;;;;;7.60;99.90;;;6.45;100.00;96083.78;10604818;28;1930;-79
2021/10/17 20:21:05;;;;;;;;;;;7.60;99.90;;;6.46;100.00;96082.72;10608524;28;1958;-78
2021/10/17 20:26:07;;;;;;;;;;;7.70;99.90;;;6.45;100.00;96089.13;10594287;28;1938;-77
2021/10/17 20:31:12;;;;;;;;;;;7.60;99.90;;;6.50;100.00;96100.69;10601568;27;1871;-78
2021/10/17 20:41:38;;;;;;;;;;;7.70;99.90;;;6.36;100.00;96104.72;10604388;27;1977;-77
2021/10/17 20:46:41;;;;;;;;;;;7.60;99.90;;;6.32;100.00;96114.25;10599604;27;1915;-80
2021/10/17 20:51:44;;;;;;;;;;;7.60;99.90;;;6.31;100.00;96117.97;10610454;27;1918;-77
2021/10/17 20:57:03;;;;;;;;;;;7.50;99.90;;;6.17;100.00;96121.94;10587851;27;1933;-78
2021/10/17 21:02:06;;;;;;;;;;;7.50;99.90;;;6.20;100.00;96124.16;10607789;27;1953;-78
2021/10/17 21:07:13;;;;;;;;;;;7.40;99.90;;;6.18;100.00;96128.91;10598992;28;1886;-78
2021/10/17 21:12:18;;;;;;;;;;;7.40;99.90;;;6.10;100.00;96129.28;10598818;28;1824;-78
2021/10/17 21:17:23;;;;;;;;;;;7.40;99.90;;;6.10;100.00;96129.28;10594675;28;2038;-78
2021/10/17 21:22:26;;;;;;;;;;;7.30;99.90;;;6.08;100.00;96128.72;10595675;28;1962;-79
2021/10/17 21:27:29;;;;;;;;;;;7.30;99.90;;;5.98;100.00;96132.00;10606219;28;1910;-78
2021/10/17 21:32:34;;;;;;;;;;;7.20;99.90;;;5.93;100.00;96151.38;10612330;27;1867;-78
2021/10/17 21:37:37;;;;;;;;;;;7.10;99.90;;;5.79;100.00;96155.31;10610847;27;1579;-77
2021/10/17 21:42:40;;;;;;;;;;;7.10;99.90;;;5.66;100.00;96160.88;10612550;27;1783;-78
2021/10/17 21:47:43;;;;;;;;;;;7.00;99.90;;;5.53;100.00;96153.09;10627652;27;1959;-77
2021/10/17 21:52:46;;;;;;;;;;;6.80;99.90;;;5.41;100.00;96161.94;10603137;27;1875;-77
2021/10/17 21:57:49;;;;;;;;;;;6.70;99.90;;;5.37;100.00;96159.94;10621301;27;1787;-78
2021/10/17 22:02:52;;;;;;;;;;;6.60;99.90;;;5.25;100.00;96161.78;10596071;27;1886;-77
2021/10/17 22:07:55;;;;;;;;;;;6.60;99.90;;;5.26;100.00;96174.88;10613919;27;1914;-80
2021/10/17 22:12:58;;;;;;;;;;;6.50;99.90;;;5.10;100.00;96176.38;10619443;27;1935;-77
2021/10/17 22:18:01;;;;;;;;;;;6.40;99.90;;;5.18;100.00;96172.56;10581649;27;1942;-78
2021/10/17 22:23:10;;;;;;;;;;;6.30;99.90;;;4.98;100.00;96172.06;10606100;27;1969;-78
2021/10/17 22:28:13;;;;;;;;;;;6.20;99.90;;;5.03;100.00;96180.19;10582011;27;1977;-78
2021/10/17 22:33:16;;;;;;;;;;;6.10;99.90;;;5.07;100.00;96186.66;10589131;27;1899;-77
2021/10/17 22:38:19;;;;;;;;;;;6.10;99.90;;;5.27;100.00;96186.34;10589449;28;1880;-78
2021/10/17 22:43:22;;;;;;;;;;;6.20;99.90;;;5.22;100.00;96184.41;10586165;28;1966;-79
2021/10/17 22:48:26;;;;;;;;;;;6.40;99.90;;;5.40;100.00;96184.28;10560133;28;2026;-78
2021/10/17 22:53:29;;;;;;;;;;;6.40;99.90;;;5.47;100.00;96181.53;10587624;28;1903;-79
2021/10/17 22:58:32;;;;;;;;;;;6.50;99.90;;;5.54;100.00;96186.75;10585859;28;1876;-77
2021/10/17 23:03:35;;;;;;;;;;;6.50;99.90;;;5.61;100.00;96179.44;10587394;28;2021;-77
2021/10/17 23:08:38;;;;;;;;;;;6.60;99.90;;;5.78;100.00;96176.88;10586973;28;1959;-79
2021/10/17 23:13:41;;;;;;;;;;;6.70;99.90;;;5.85;100.00;96175.72;10586720;28;2013;-78
2021/10/17 23:18:43;;;;;;;;;;;6.80;99.90;;;5.94;100.00;96176.19;10591643;28;1887;-77
2021/10/17 23:23:46;;;;;;;;;;;7.00;99.90;;;6.06;100.00;96178.84;10584675;27;2029;-78
2021/10/17 23:28:49;;;;;;;;;;;7.00;99.90;;;6.09;100.00;96181.03;10610713;27;1882;-77